Time;durP1;ratioP1;P1;durP2;ratioP2;P2;SDS_P1;SDS_P2;PMS_P1;PMS_P2;Temp;Humidity;BMP_temperature;BMP_pressure;BME280_temperature;BME280_humidity;BME280_pressure;Samples;Min_cycle;Max_cycle;Signal;HPM_P1;HPM_P2
2021/09/01 00:02:37;;;;;;;6.50;5.40;;;11.40;99.90;;;12.00;100.00;95842.00;2380420;55;33794;-60
2021/09/01 00:05:24;;;;;;;6.13;5.53;;;11.40;99.90;;;11.83;100.00;95867.00;2180441;56;26991;-61
2021/09/01 00:08:10;;;;;;;7.33;5.47;;;11.40;99.90;;;11.86;100.00;95877.00;2157800;56;27247;-60
2021/09/01 00:10:56;;;;;;;6.80;5.23;;;11.40;99.90;;;11.90;100.00;95873.00;2389846;55;26758;-60
2021/09/01 00:13:43;;;;;;;6.33;5.17;;;11.50;99.90;;;11.91;100.00;95874.00;2197384;57;26979;-60
2021/09/01 00:16:31;;;;;;;6.30;5.57;;;11.40;99.90;;;11.89;100.00;95876.00;2422094;55;26887;-59
2021/09/01 00:19:17;;;;;;;5.70;5.10;;;11.40;99.90;;;11.86;100.00;95874.00;2200153;57;26755;-59
2021/09/01 00:25:02;;;;;;;6.73;5.90;;;11.40;99.90;;;11.96;100.00;95856.00;2384627;55;34857;-58
2021/09/01 00:27:48;;;;;;;6.07;5.30;;;11.40;99.90;;;11.73;100.00;95875.00;2149607;57;26796;-58
2021/09/01 00:30:34;;;;;;;6.70;5.63;;;11.30;99.90;;;11.69;100.00;95883.00;2148629;56;26922;-58
2021/09/01 00:33:21;;;;;;;7.83;5.70;;;11.40;99.90;;;11.67;100.00;95881.00;2384859;56;26722;-59
2021/09/01 00:39:04;;;;;;;6.83;5.30;;;11.30;99.90;;;11.83;100.00;95856.00;2358538;55;34677;-58
2021/09/01 00:41:51;;;;;;;6.30;5.57;;;11.30;99.90;;;11.71;100.00;95880.00;2329092;57;27145;-59
2021/09/01 00:44:38;;;;;;;6.57;5.53;;;11.30;99.90;;;11.62;100.00;95877.00;2136142;59;27357;-59
2021/09/01 00:50:22;;;;;;;7.37;5.90;;;11.20;99.90;;;11.73;100.00;95864.00;2362189;55;34703;-59
2021/09/01 00:53:09;;;;;;;6.00;5.27;;;11.30;99.90;;;11.69;100.00;95883.00;2362676;56;26663;-58
2021/09/01 00:55:57;;;;;;;6.27;5.63;;;11.30;99.90;;;11.67;100.00;95881.00;2154984;56;26252;-60
2021/09/01 00:58:44;;;;;;;7.23;5.13;;;11.30;99.90;;;11.73;100.00;95888.00;2358360;55;26656;-60
2021/09/01 01:01:31;;;;;;;6.07;5.47;;;11.30;99.90;;;11.74;100.00;95884.00;2148854;56;27330;-60
2021/09/01 01:04:17;;;;;;;5.93;5.10;;;11.30;99.90;;;11.73;100.00;95880.00;2360205;55;26870;-60
2021/09/01 01:07:06;;;;;;;6.20;5.60;;;11.20;99.90;;;11.69;100.00;95881.00;2148938;56;26787;-59
2021/09/01 01:09:52;;;;;;;6.47;5.70;;;11.20;99.90;;;11.69;100.00;95883.00;2161864;56;26222;-58
2021/09/01 01:12:38;;;;;;;6.83;5.20;;;11.30;99.90;;;11.74;100.00;95879.00;2161838;56;26646;-59
2021/09/01 01:18:23;;;;;;;6.13;5.27;;;11.30;99.90;;;11.86;100.00;95861.00;2444005;54;33308;-60
2021/09/01 01:21:09;;;;;;;6.73;5.47;;;11.30;99.90;;;11.72;100.00;95886.00;2201298;56;27333;-59
2021/09/01 01:23:57;;;;;;;6.80;5.43;;;11.30;99.90;;;11.66;100.00;95887.00;2201659;56;26694;-60
2021/09/01 01:26:43;;;;;;;7.03;5.40;;;11.20;99.90;;;11.63;100.00;95880.00;2423468;55;26764;-58
2021/09/01 01:32:26;;;;;;;7.23;6.37;;;11.20;99.90;;;11.56;100.00;95857.00;2368818;56;34841;-59
2021/09/01 01:35:24;;;;;;;6.87;5.60;;;11.10;99.90;;;11.57;100.00;95886.00;2361154;55;26833;-59
2021/09/01 01:38:14;;;;;;;6.07;5.47;;;11.10;99.90;;;11.50;100.00;95874.00;2380489;56;27262;-59
2021/09/01 01:41:01;;;;;;;7.27;5.60;;;11.10;99.90;;;11.51;100.00;95889.00;2154974;57;26957;-59
2021/09/01 01:46:44;;;;;;;7.97;6.07;;;11.20;99.90;;;11.74;100.00;95860.00;2421940;54;33756;-60
2021/09/01 01:49:30;;;;;;;7.47;5.80;;;11.30;99.90;;;11.68;100.00;95890.00;2366406;56;26603;-58
2021/09/01 01:55:13;;;;;;;7.07;6.23;;;11.20;99.90;;;11.58;100.00;95864.00;2294238;56;34454;-59
2021/09/01 01:57:59;;;;;;;7.97;6.47;;;11.10;99.90;;;11.48;100.00;95886.00;2074756;59;26188;-59
2021/09/01 02:00:46;;;;;;;8.03;6.17;;;11.00;99.90;;;11.38;100.00;95888.00;2287103;58;26767;-60
2021/09/01 02:03:32;;;;;;;7.37;5.87;;;10.90;99.90;;;11.29;100.00;95891.00;2086966;59;26651;-59
2021/09/01 02:06:19;;;;;;;6.63;5.93;;;10.80;99.90;;;11.21;100.00;95890.00;2271845;58;26655;-59
2021/09/01 02:12:02;;;;;;;6.97;5.63;;;10.60;99.90;;;11.11;100.00;95868.00;2406606;55;34071;-59
2021/09/01 02:17:45;;;;;;;7.80;6.10;;;10.50;99.90;;;11.01;100.00;95865.00;2354312;55;33864;-60
2021/09/01 02:20:32;;;;;;;7.63;5.80;;;10.30;99.90;;;10.79;100.00;95886.00;2113672;57;26733;-58
2021/09/01 02:23:18;;;;;;;8.07;5.97;;;10.20;99.90;;;10.63;100.00;95892.00;2334427;57;26730;-59
2021/09/01 02:26:05;;;;;;;8.00;5.57;;;10.10;99.90;;;10.50;100.00;95891.00;2114963;57;26723;-60
2021/09/01 02:31:48;;;;;;;9.67;5.97;;;10.00;99.90;;;10.51;100.00;95873.00;2454557;54;33724;-60
2021/09/01 02:37:31;;;;;;;6.93;5.60;;;10.00;99.90;;;10.48;100.00;95870.00;2395123;55;34228;-60
2021/09/01 02:40:18;;;;;;;7.80;5.80;;;9.90;99.90;;;10.38;100.00;95898.00;2146069;56;26269;-59
2021/09/01 02:43:05;;;;;;;8.87;6.17;;;9.90;99.90;;;10.37;100.00;95889.00;2137399;57;27289;-60
2021/09/01 02:45:51;;;;;;;6.77;5.53;;;10.00;99.90;;;10.48;100.00;95893.00;2371218;56;26736;-60
2021/09/01 02:48:38;;;;;;;10.27;6.07;;;10.00;99.90;;;10.41;100.00;95896.00;2160145;56;26706;-59
2021/09/01 02:51:24;;;;;;;6.70;5.50;;;10.00;99.90;;;10.48;100.00;95891.00;2393490;56;26662;-59
2021/09/01 03:00:08;;;;;;;7.73;5.77;;;10.00;99.90;;;10.61;100.00;95870.00;2385810;55;35127;-59
2021/09/01 03:02:55;;;;;;;7.30;5.60;;;10.10;99.90;;;10.62;100.00;95888.00;2400513;56;26643;-59
2021/09/01 03:05:42;;;;;;;9.47;5.83;;;10.10;99.90;;;10.64;100.00;95894.00;2191188;56;27384;-59
2021/09/01 03:08:28;;;;;;;10.93;6.30;;;10.20;99.90;;;10.68;100.00;95895.00;2193561;55;26655;-60
2021/09/01 03:11:14;;;;;;;9.70;6.47;;;10.30;99.90;;;10.77;100.00;95903.00;2187543;56;26724;-59
2021/09/01 03:16:58;;;;;;;8.03;5.83;;;10.20;99.90;;;10.80;100.00;95866.00;2428234;54;34129;-60
2021/09/01 03:19:44;;;;;;;6.77;6.07;;;10.30;99.90;;;10.77;100.00;95888.00;2230551;54;26803;-59
2021/09/01 03:22:30;;;;;;;10.40;6.40;;;10.30;99.90;;;10.78;100.00;95895.00;2434777;54;26575;-59
2021/09/01 03:25:17;;;;;;;6.70;5.97;;;10.30;99.90;;;10.76;100.00;95892.00;2210726;55;26922;-59
2021/09/01 03:31:00;;;;;;;6.03;5.43;;;10.20;99.90;;;10.54;100.00;95866.00;2396418;54;33716;-59
2021/09/01 03:33:46;;;;;;;6.47;5.80;;;10.00;99.90;;;10.28;100.00;95885.00;2376151;56;27773;-60
2021/09/01 03:36:33;;;;;;;7.80;5.50;;;9.90;99.90;;;10.21;100.00;95885.00;2165778;58;27216;-60
2021/09/01 03:39:19;;;;;;;6.50;5.53;;;9.90;99.90;;;10.26;100.00;95888.00;2376366;57;26738;-60
2021/09/01 03:42:06;;;;;;;8.50;5.37;;;9.80;99.90;;;10.19;100.00;95887.00;2164792;58;27287;-59
2021/09/01 03:44:53;;;;;;;6.33;5.47;;;9.70;99.90;;;10.06;100.00;95890.00;2373926;56;26778;-60
2021/09/01 03:50:37;;;;;;;6.60;5.00;;;9.40;99.90;;;9.93;100.00;95878.00;2394573;54;34374;-60
2021/09/01 03:53:23;;;;;;;5.63;5.03;;;9.30;99.90;;;9.81;100.00;95894.00;2151030;56;26692;-59
2021/09/01 03:56:10;;;;;;;6.03;4.50;;;9.20;99.90;;;9.71;100.00;95899.00;2396961;55;26154;-59
2021/09/01 03:58:56;;;;;;;6.00;4.77;;;9.30;99.90;;;9.76;100.00;95896.00;2176476;55;27489;-59
2021/09/01 04:01:43;;;;;;;5.60;4.80;;;9.30;99.90;;;9.85;100.00;95905.00;2171755;55;26695;-60
2021/09/01 04:04:29;;;;;;;10.20;5.30;;;9.30;99.90;;;9.77;100.00;95900.00;2383975;55;26849;-59
2021/09/01 04:07:15;;;;;;;11.23;5.00;;;9.20;99.90;;;9.65;100.00;95907.00;2151096;56;26848;-60
2021/09/01 04:10:02;;;;;;;10.10;5.37;;;9.10;99.90;;;9.63;100.00;95901.00;2147673;56;26799;-59
2021/09/01 04:12:49;;;;;;;8.37;5.20;;;9.10;99.90;;;9.67;100.00;95905.00;2359580;56;27748;-61
2021/09/01 04:15:35;;;;;;;8.47;5.60;;;9.10;99.90;;;9.69;100.00;95914.00;2147678;56;26876;-59
2021/09/01 04:18:22;;;;;;;11.70;5.97;;;9.20;99.90;;;9.77;100.00;95908.00;2148990;56;27176;-59
2021/09/01 04:21:08;;;;;;;16.00;6.67;;;9.30;99.90;;;9.87;100.00;95910.00;2147160;56;26830;-59
2021/09/01 04:23:56;;;;;;;10.70;6.47;;;9.40;99.90;;;9.92;100.00;95913.00;2360724;56;27372;-62
2021/09/01 04:26:42;;;;;;;13.47;7.10;;;9.40;99.90;;;9.96;100.00;95913.00;2147672;56;26155;-59
2021/09/01 04:29:29;;;;;;;10.93;6.63;;;9.50;99.90;;;9.97;100.00;95921.00;2155341;55;26892;-61
2021/09/01 04:32:15;;;;;;;12.33;6.50;;;9.60;99.90;;;10.05;100.00;95905.00;2372159;55;26697;-60
2021/09/01 04:35:01;;;;;;;8.50;6.37;;;9.70;99.90;;;10.13;100.00;95910.00;2142945;57;26842;-60
2021/09/01 04:37:48;;;;;;;16.67;6.40;;;9.80;99.90;;;10.19;100.00;95909.00;2150333;57;26781;-60
2021/09/01 04:40:34;;;;;;;22.10;5.60;;;9.70;99.90;;;10.20;100.00;95915.00;2158695;57;27048;-60
2021/09/01 04:43:21;;;;;;;13.70;5.10;;;9.70;99.90;;;10.07;100.00;95918.00;2159708;57;26123;-59
2021/09/01 04:49:05;;;;;;;13.10;5.10;;;9.70;99.90;;;10.39;100.00;95903.00;2516879;52;33595;-60
2021/09/01 04:51:52;;;;;;;8.23;4.67;;;9.80;99.90;;;10.31;100.00;95921.00;2279078;54;27229;-59
2021/09/01 04:54:38;;;;;;;30.87;5.77;;;9.80;99.90;;;10.33;100.00;95927.00;2267256;55;26175;-59
2021/09/01 05:00:20;;;;;;;48.53;6.70;;;9.80;99.90;;;10.23;100.00;95904.00;2456407;54;34033;-59
2021/09/01 05:03:07;;;;;;;50.67;6.30;;;9.70;99.90;;;10.08;100.00;95918.00;2234139;55;27252;-59
2021/09/01 05:05:54;;;;;;;64.87;7.43;;;9.80;99.90;;;10.18;100.00;95921.00;2245994;54;26987;-61
2021/09/01 05:08:40;;;;;;;102.87;8.60;;;9.80;99.90;;;10.30;100.00;95919.00;2490671;54;26645;-60
2021/09/01 05:11:26;;;;;;;53.37;6.53;;;9.90;99.90;;;10.30;100.00;95926.00;2254519;55;26800;-60
2021/09/01 05:14:13;;;;;;;48.87;5.47;;;9.90;99.90;;;10.25;100.00;95939.00;2488888;54;26804;-59
2021/09/01 05:19:57;;;;;;;23.60;5.07;;;9.80;99.90;;;10.23;100.00;95910.00;2419244;55;34209;-61
2021/09/01 05:22:48;;;;;;;32.83;5.43;;;9.80;99.90;;;10.24;100.00;95931.00;2389522;55;26844;-60
2021/09/01 05:28:40;;;;;;;9.10;5.00;;;9.80;99.90;;;10.33;100.00;95903.00;2411723;55;33793;-61
2021/09/01 05:31:31;;;;;;;39.77;6.00;;;9.90;99.90;;;10.31;100.00;95923.00;2163464;57;26786;-60
2021/09/01 05:37:20;;;;;;;68.83;7.23;;;10.20;99.90;;;10.90;100.00;95909.00;2403608;55;34471;-60
2021/09/01 05:40:10;;;;;;;59.87;6.90;;;10.20;99.90;;;10.77;100.00;95920.00;2154700;57;27137;-60
2021/09/01 05:42:58;;;;;;;37.47;6.90;;;10.20;99.90;;;10.74;100.00;95923.00;2373537;56;26668;-60
2021/09/01 05:45:46;;;;;;;25.73;6.00;;;10.20;99.90;;;10.76;100.00;95932.00;2162198;56;27427;-60
2021/09/01 05:48:36;;;;;;;17.87;5.13;;;10.40;99.90;;;10.94;100.00;95942.00;2385354;56;26773;-61
2021/09/01 05:51:24;;;;;;;9.93;4.80;;;10.50;99.90;;;11.18;100.00;95940.00;2189496;57;26203;-60
2021/09/01 05:54:10;;;;;;;13.63;4.80;;;10.70;99.90;;;11.40;100.00;95943.00;2408350;56;27073;-59
2021/09/01 05:57:11;;;;;;;17.47;4.57;;;10.80;99.90;;;11.44;100.00;95940.00;2189506;57;26470;-61
2021/09/01 06:00:04;;;;;;;50.13;7.13;;;10.90;99.90;;;11.58;100.00;95944.00;2192681;57;26653;-61
2021/09/01 06:05:52;;;;;;;17.42;4.07;;;11.00;99.90;;;11.71;100.00;95910.00;2478352;53;33950;-60
2021/09/01 06:08:39;;;;;;;24.57;4.33;;;11.00;99.90;;;11.74;100.00;95932.00;2216015;54;26730;-60
2021/09/01 06:11:27;;;;;;;45.03;5.33;;;11.20;99.90;;;11.99;100.00;95929.00;2438305;54;26630;-60
2021/09/01 06:14:13;;;;;;;72.10;7.10;;;11.10;99.90;;;11.93;100.00;95930.00;2213855;54;26784;-60
2021/09/01 06:16:59;;;;;;;60.67;6.80;;;11.40;99.90;;;12.14;100.00;95923.00;2439986;54;26136;-60
2021/09/01 06:19:46;;;;;;;101.55;8.20;;;11.50;99.90;;;12.35;100.00;95921.00;2202966;55;27070;-60
2021/09/01 06:22:33;;;;;;;71.93;7.00;;;11.60;99.90;;;12.48;100.00;95917.00;2422563;54;26773;-60
2021/09/01 06:25:19;;;;;;;41.00;4.90;;;11.70;99.90;;;12.49;100.00;95912.00;2253127;54;26679;-61
2021/09/01 06:28:08;;;;;;;40.63;5.07;;;11.90;99.90;;;12.79;100.00;95905.00;2266555;54;26618;-60
2021/09/01 06:30:54;;;;;;;66.12;6.65;;;11.90;99.90;;;12.76;100.00;95906.00;2498916;54;27399;-60
2021/09/01 06:33:40;;;;;;;27.02;4.65;;;11.90;99.90;;;12.70;100.00;95901.00;2265604;54;26635;-60
2021/09/01 06:36:27;;;;;;;5.60;3.47;;;12.00;99.90;;;12.87;100.00;95895.00;2489610;54;27045;-60
2021/09/01 06:39:13;;;;;;;105.00;7.90;;;12.20;99.90;;;13.04;100.00;95887.00;2253479;54;26860;-61
2021/09/01 06:42:00;;;;;;;9.77;4.43;;;12.40;99.90;;;13.24;100.00;95889.00;2489737;54;26109;-60
2021/09/01 06:47:45;;;;;;;11.20;3.58;;;12.90;99.90;;;13.94;100.00;95876.00;2406847;54;34382;-60
2021/09/01 06:50:31;;;;;;;17.50;4.28;;;13.10;99.90;;;14.12;100.00;95884.00;2178931;56;26827;-60
2021/09/01 06:53:17;;;;;;;25.00;4.50;;;13.40;99.90;;;14.52;100.00;95874.00;2410696;56;26865;-60
2021/09/01 06:56:04;;;;;;;15.32;4.10;;;13.50;99.90;;;14.56;100.00;95883.00;2189619;56;27839;-60
2021/09/01 06:58:51;;;;;;;6.53;3.60;;;13.50;99.90;;;14.45;100.00;95889.00;2396085;56;26836;-60
2021/09/01 07:04:34;;;;;;;5.40;4.10;;;13.60;99.90;;;14.50;100.00;95887.00;2287313;57;33994;-60
2021/09/01 07:10:18;;;;;;;4.55;4.07;;;13.70;99.90;;;14.85;100.00;95884.00;2443089;54;33603;-60
2021/09/01 07:13:05;;;;;;;4.87;4.20;;;13.90;99.90;;;15.12;100.00;95897.00;2417925;54;27294;-60
2021/09/01 07:15:51;;;;;;;4.30;3.85;;;14.30;99.90;;;15.61;100.00;95892.00;2179543;55;26677;-60
2021/09/01 07:18:38;;;;;;;4.40;4.00;;;15.00;99.90;;;16.48;100.00;95890.00;2165825;55;27305;-60
2021/09/01 07:21:24;;;;;;;4.57;3.70;;;15.90;99.90;;;17.61;100.00;95891.00;2397287;55;26708;-61
2021/09/01 07:27:08;;;;;;;3.78;3.22;;;16.10;99.90;;;17.79;100.00;95906.00;2393717;55;34292;-61
2021/09/01 07:32:51;;;;;;;3.72;3.25;;;16.00;99.90;;;17.23;100.00;95907.00;2406213;55;33967;-60
2021/09/01 07:35:37;;;;;;;4.03;3.62;;;15.80;99.90;;;16.93;100.00;95914.00;2184425;56;26845;-62
2021/09/01 07:38:24;;;;;;;4.03;3.65;;;15.90;99.90;;;17.07;100.00;95910.00;2184497;57;26787;-61
2021/09/01 07:41:10;;;;;;;3.58;3.28;;;17.40;99.90;;;19.82;100.00;95905.00;2399478;56;27382;-61
2021/09/01 07:43:56;;;;;;;3.80;3.25;;;19.40;99.90;;;22.27;100.00;95904.00;2182848;56;26700;-60
2021/09/01 07:46:43;;;;;;;3.80;3.45;;;20.60;99.90;;;23.29;100.00;95909.00;2400750;56;27795;-61
2021/09/01 07:49:30;;;;;;;3.33;3.03;;;21.50;99.90;;;24.24;100.00;95917.00;2200308;56;26624;-60
2021/09/01 07:52:16;;;;;;;3.40;3.10;;;21.90;99.90;;;24.69;100.00;95917.00;2427307;55;26752;-61
2021/09/01 07:58:00;;;;;;;3.60;3.30;;;21.00;99.90;;;23.61;100.00;95913.00;2484858;53;33617;-59
2021/09/01 08:00:47;;;;;;;3.47;3.17;;;22.30;99.90;;;24.68;100.00;95913.00;2228348;54;26989;-59
2021/09/01 08:06:31;;;;;;;3.90;3.60;;;21.40;99.90;;;22.99;100.00;95918.00;2469275;53;33773;-61
2021/09/01 08:09:19;;;;;;;4.10;3.70;;;20.60;99.90;;;21.95;100.00;95921.00;2222138;55;26465;-60
2021/09/01 08:12:07;;;;;;;3.70;3.40;;;20.20;99.90;;;21.39;100.00;95921.00;2433160;54;26689;-60
2021/09/01 08:14:53;;;;;;;4.30;3.90;;;20.30;99.90;;;22.19;100.00;95929.00;2202292;55;26898;-60
2021/09/01 08:17:41;;;;;;;4.07;3.67;;;21.60;99.90;;;24.01;100.00;95933.00;2209455;56;27133;-61
2021/09/01 08:20:28;;;;;;;5.45;4.00;;;22.90;99.90;;;25.76;100.00;95934.00;2441490;53;26687;-61
2021/09/01 08:23:15;;;;;;;4.53;4.12;;;23.10;99.90;;;25.67;100.00;95934.00;2205810;54;26693;-61
2021/09/01 08:26:02;;;;;;;4.28;3.87;;;23.40;99.90;;;25.91;100.00;95935.00;2433318;54;26623;-60
2021/09/01 08:28:49;;;;;;;4.30;3.80;;;24.20;99.90;;;27.28;100.00;95935.00;2210616;54;27446;-60
2021/09/01 08:31:36;;;;;;;4.68;3.75;;;23.90;99.90;;;26.50;100.00;95928.00;2209359;54;26678;-60
2021/09/01 08:34:22;;;;;;;4.35;3.95;;;23.50;99.90;;;26.36;100.00;95930.00;2211600;54;26125;-62
2021/09/01 08:37:09;;;;;;;4.30;3.87;;;25.00;99.90;;;28.10;100.00;95932.00;2210688;54;25648;-61
2021/09/01 08:42:54;;;;;;;4.18;3.83;;;26.50;99.90;;;29.29;100.00;95924.00;2440523;53;32217;-59
2021/09/01 08:45:40;;;;;;;4.22;3.83;;;26.40;99.90;;;28.90;100.00;95935.00;2188070;55;27326;-59
2021/09/01 08:48:28;;;;;;;4.40;4.00;;;27.10;99.90;;;29.80;100.00;95936.00;2400992;55;26052;-59
2021/09/01 08:51:14;;;;;;;4.55;4.03;;;27.60;99.90;;;30.30;93.96;95924.00;2213697;55;25736;-59
2021/09/01 08:54:01;;;;;;;4.28;3.87;;;28.00;99.90;;;31.12;90.70;95928.00;2451578;54;27346;-59
2021/09/01 08:59:45;;;;;;;4.30;3.90;;;27.60;99.90;;;29.90;85.45;95920.00;2387430;54;33920;-61
2021/09/01 09:02:31;;;;;;;4.00;3.70;;;26.60;99.90;;;28.63;97.57;95924.00;2161135;55;25624;-61
2021/09/01 09:05:24;;;;;;;4.25;3.70;;;24.40;99.90;;;25.85;100.00;95923.00;2402176;55;26811;-61
2021/09/01 09:08:12;;;;;;;4.07;3.75;;;23.50;99.90;;;25.43;100.00;95922.00;2203278;56;27143;-60
2021/09/01 09:10:59;;;;;;;4.18;3.78;;;24.80;99.90;;;27.45;100.00;95922.00;2430419;55;26688;-60
2021/09/01 09:19:49;;;;;;;4.37;3.80;;;24.60;99.90;;;24.17;100.00;95914.00;2422312;55;32719;-60
2021/09/01 09:22:38;;;;;;;4.43;3.62;;;23.90;99.90;;;26.21;100.00;95918.00;2390443;56;27319;-60
2021/09/01 09:25:31;;;;;;;3.97;3.67;;;25.00;99.90;;;27.24;100.00;95921.00;2173711;56;25681;-61
2021/09/01 09:28:17;;;;;;;3.87;3.47;;;25.90;99.90;;;29.04;100.00;95905.00;2403082;55;27196;-61
2021/09/01 09:31:03;;;;;;;3.58;3.28;;;27.00;99.90;;;30.20;83.89;95906.00;2186805;56;26960;-59
2021/09/01 09:33:50;;;;;;;5.05;3.78;;;27.60;99.90;;;30.59;78.19;95912.00;2390506;55;27021;-59
2021/09/01 09:36:37;;;;;;;3.80;3.50;;;28.40;99.90;;;31.14;69.59;95905.00;2189486;56;25513;-58
2021/09/01 09:39:38;;;;;;;3.78;3.03;;;28.30;99.90;;;31.38;78.66;95905.00;2407411;55;25673;-59
2021/09/01 09:42:38;;;;;;;3.75;3.40;;;28.10;99.90;;;30.90;60.51;95912.00;2407972;55;26815;-58
2021/09/01 09:45:26;;;;;;;6.53;3.22;;;25.80;99.90;;;26.18;81.04;95908.00;2407857;55;27351;-58
2021/09/01 09:48:13;;;;;;;3.55;3.20;;;24.40;99.90;;;25.33;99.04;95900.00;2204819;55;26716;-58
2021/09/01 09:51:06;;;;;;;3.80;3.50;;;23.30;99.90;;;24.28;100.00;95908.00;2207360;56;26857;-58
2021/09/01 09:53:53;;;;;;;4.03;3.58;;;23.60;99.90;;;25.27;100.00;95901.00;2207653;56;25635;-58
2021/09/01 09:56:41;;;;;;;3.97;3.10;;;24.90;99.90;;;27.12;100.00;95899.00;2207180;56;25199;-59
2021/09/01 09:59:28;;;;;;;8.40;5.25;;;25.80;99.90;;;27.39;91.71;95897.00;2424389;55;26678;-59
2021/09/01 10:02:16;;;;;;;4.20;3.80;;;25.70;99.90;;;27.05;98.79;95896.00;2409629;55;27051;-59
2021/09/01 10:05:03;;;;;;;4.72;3.40;;;26.10;99.90;;;27.24;86.85;95888.00;2196937;56;27453;-58
2021/09/01 10:07:50;;;;;;;3.50;3.20;;;25.60;99.90;;;26.88;97.66;95895.00;2431672;55;27267;-58
2021/09/01 10:13:33;;;;;;;3.90;3.47;;;27.00;99.90;;;28.21;95.65;95891.00;2410636;55;35049;-60
2021/09/01 10:16:34;;;;;;;3.87;3.58;;;27.40;99.90;;;27.42;76.30;95893.00;2184637;55;27106;-60
2021/09/01 10:22:24;;;;;;;3.67;3.30;;;27.40;99.90;;;27.97;79.56;95895.00;2402648;54;33476;-60
2021/09/01 10:25:34;;;;;;;3.35;3.05;;;27.90;99.90;;;28.61;89.14;95893.00;2170066;56;26135;-61
2021/09/01 10:28:34;;;;;;;3.62;3.20;;;26.50;99.90;;;27.67;81.65;95902.00;2399664;55;27422;-60
2021/09/01 10:31:33;;;;;;;3.55;3.22;;;25.00;99.90;;;25.31;99.37;95900.00;2172120;56;26716;-60
2021/09/01 10:34:22;;;;;;;3.70;3.20;;;23.60;99.90;;;24.03;97.64;95899.00;2410972;55;27433;-60
2021/09/01 10:40:10;;;;;;;3.60;2.53;;;25.20;99.90;;;28.89;86.69;95893.00;2362937;56;34706;-60
2021/09/01 10:42:57;;;;;;;2.97;2.75;;;26.80;99.90;;;30.37;62.74;95892.00;2116161;58;26149;-60
2021/09/01 10:45:57;;;;;;;3.50;3.12;;;27.50;99.90;;;31.32;58.26;95898.00;2110184;59;26720;-60
2021/09/01 10:52:06;;;;;;;4.95;3.05;;;26.50;99.90;;;28.73;56.47;95877.00;2420983;55;33674;-60
2021/09/01 10:58:16;;;;;;;3.58;3.08;;;24.80;99.90;;;26.51;83.64;95884.00;2411427;54;34076;-61
2021/09/01 11:01:13;;;;;;;3.35;2.78;;;23.00;99.90;;;24.06;85.54;95888.00;2176597;55;26755;-60
2021/09/01 11:04:02;;;;;;;4.07;2.87;;;21.70;99.90;;;22.39;93.89;95894.00;2420530;55;26733;-60
2021/09/01 11:06:50;;;;;;;3.10;2.80;;;21.80;99.90;;;22.62;86.48;95886.00;2197208;55;26968;-60
2021/09/01 11:09:36;;;;;;;3.22;2.80;;;22.70;99.90;;;24.01;80.78;95872.00;2418727;55;26839;-59
2021/09/01 11:12:23;;;;;;;2.85;2.53;;;23.60;99.90;;;25.18;99.21;95870.00;2198672;55;27358;-60
2021/09/01 11:18:08;;;;;;;3.62;3.22;;;25.30;99.90;;;26.92;91.31;95869.00;2457266;53;33903;-60
2021/09/01 11:20:55;;;;;;;3.55;3.00;;;26.00;99.90;;;27.11;78.96;95859.00;2483801;53;27379;-60
2021/09/01 11:26:37;;;;;;;3.10;2.80;;;25.00;99.90;;;26.14;78.69;95854.00;2377220;55;33777;-59
2021/09/01 11:29:34;;;;;;;2.90;2.60;;;25.50;99.90;;;25.42;69.15;95861.00;2359701;55;26234;-61
2021/09/01 11:32:21;;;;;;;3.42;2.80;;;25.00;99.90;;;25.15;81.71;95855.00;2364046;55;26849;-59
2021/09/01 11:38:10;;;;;;;3.70;3.05;;;23.20;99.90;;;23.08;89.46;95855.00;2404516;55;34333;-59
2021/09/01 11:41:00;;;;;;;3.40;3.05;;;23.80;99.90;;;23.41;100.00;95864.00;2156216;56;26765;-60
2021/09/01 11:43:46;;;;;;;4.47;3.30;;;23.80;99.90;;;23.41;100.00;95869.00;2365985;55;26762;-60
2021/09/01 11:46:34;;;;;;;3.12;2.83;;;24.10;99.90;;;23.51;85.22;95859.00;2157267;57;27257;-59
2021/09/01 11:49:21;;;;;;;4.25;2.80;;;23.70;99.90;;;23.06;85.69;95866.00;2393666;56;26644;-59
2021/09/01 11:52:08;;;;;;;3.10;2.80;;;23.40;99.90;;;23.11;91.37;95859.00;2183483;56;26841;-59
2021/09/01 11:54:54;;;;;;;5.28;2.95;;;23.80;99.90;;;23.64;98.86;95861.00;2402553;56;26715;-59
2021/09/01 12:00:41;;;;;;;20.30;4.82;;;22.80;99.90;;;22.06;96.48;95863.00;2407752;55;34854;-58
2021/09/01 12:03:27;;;;;;;19.92;4.00;;;22.40;99.90;;;22.63;100.00;95875.00;2168261;55;27283;-59
2021/09/01 12:06:14;;;;;;;3.37;3.05;;;22.40;99.90;;;22.53;95.95;95880.00;2393437;55;26826;-60
2021/09/01 12:09:01;;;;;;;3.25;2.85;;;22.60;99.90;;;22.75;100.00;95886.00;2176144;56;26697;-60
2021/09/01 12:11:53;;;;;;;4.57;2.87;;;21.70;99.90;;;21.57;97.42;95882.00;2393186;55;26616;-60
2021/09/01 12:14:39;;;;;;;3.50;3.20;;;22.00;99.90;;;22.22;100.00;95880.00;2178380;56;26680;-60
2021/09/01 12:17:26;;;;;;;4.53;3.55;;;22.30;99.90;;;22.19;100.00;95876.00;2396729;56;27298;-60
2021/09/01 12:20:16;;;;;;;4.87;3.90;;;21.60;99.90;;;21.39;100.00;95866.00;2178767;55;26667;-59
2021/09/01 12:26:13;;;;;;;5.62;3.12;;;22.10;99.90;;;22.12;100.00;95864.00;2426782;54;33243;-59
2021/09/01 12:29:00;;;;;;;4.12;3.60;;;22.10;99.90;;;22.43;100.00;95873.00;2397584;55;26864;-59
2021/09/01 12:31:53;;;;;;;4.95;3.40;;;21.40;99.90;;;21.27;100.00;95879.00;2185485;56;26660;-60
2021/09/01 12:34:43;;;;;;;5.37;3.50;;;21.30;99.90;;;21.43;100.00;95873.00;2403488;56;27220;-59
2021/09/01 12:40:31;;;;;;;4.28;3.33;;;21.80;99.90;;;22.16;100.00;95865.00;2379121;54;33215;-60
2021/09/01 12:43:19;;;;;;;3.97;3.58;;;21.80;99.90;;;21.93;100.00;95870.00;2146318;58;27298;-60
2021/09/01 12:46:05;;;;;;;3.97;3.17;;;21.50;99.90;;;21.63;100.00;95865.00;2372120;56;27321;-59
2021/09/01 12:48:52;;;;;;;3.37;3.08;;;21.70;99.90;;;21.92;100.00;95861.00;2158995;56;26711;-60
2021/09/01 12:51:38;;;;;;;4.12;3.42;;;22.20;99.90;;;22.41;100.00;95857.00;2364849;56;26749;-59
2021/09/01 12:54:25;;;;;;;4.80;3.70;;;22.10;99.90;;;22.24;97.87;95851.00;2152736;56;26724;-59
2021/09/01 12:57:11;;;;;;;4.28;3.60;;;22.00;99.90;;;22.25;100.00;95846.00;2365343;55;26697;-59
2021/09/01 12:59:58;;;;;;;3.90;3.50;;;22.40;99.90;;;22.68;100.00;95856.00;2152949;56;26242;-59
2021/09/01 13:02:44;;;;;;;4.15;3.33;;;22.00;99.90;;;22.02;100.00;95855.00;2153368;56;26800;-59
2021/09/01 13:05:31;;;;;;;3.72;3.25;;;21.50;99.90;;;21.37;100.00;95854.00;2167188;56;26629;-59
2021/09/01 13:08:18;;;;;;;3.62;3.25;;;21.00;99.90;;;20.98;100.00;95845.00;2158582;56;26703;-59
2021/09/01 13:11:04;;;;;;;4.30;3.58;;;21.00;99.90;;;21.03;100.00;95859.00;2152396;56;26902;-59
2021/09/01 13:13:51;;;;;;;3.87;3.53;;;21.20;99.90;;;21.58;100.00;95849.00;2151624;56;26897;-59
2021/09/01 13:16:37;;;;;;;3.60;3.28;;;20.90;99.90;;;20.97;100.00;95838.00;2158960;56;26724;-60
2021/09/01 13:19:24;;;;;;;7.05;3.40;;;20.50;99.90;;;20.65;100.00;95838.00;2174220;56;27261;-60
2021/09/01 13:22:10;;;;;;;3.80;2.85;;;21.00;99.90;;;21.35;100.00;95837.00;2174998;56;27545;-59
2021/09/01 13:24:56;;;;;;;4.43;2.90;;;21.00;99.90;;;21.10;100.00;95845.00;2181290;56;27046;-59
2021/09/01 13:27:43;;;;;;;3.33;3.03;;;21.40;99.90;;;21.89;100.00;95843.00;2164600;56;26161;-59
2021/09/01 13:30:29;;;;;;;4.50;3.30;;;21.70;99.90;;;21.97;97.66;95847.00;2163920;56;27335;-63
2021/09/01 13:33:15;;;;;;;3.70;3.00;;;21.60;99.90;;;21.97;96.15;95836.00;2164541;56;27323;-59
2021/09/01 13:36:02;;;;;;;3.87;3.20;;;21.20;99.90;;;21.38;100.00;95830.00;2164097;56;26629;-59
2021/09/01 13:38:48;;;;;;;3.30;3.00;;;21.10;99.90;;;21.36;100.00;95832.00;2164760;56;26707;-59
2021/09/01 13:41:35;;;;;;;4.00;3.45;;;20.70;99.90;;;20.92;100.00;95828.00;2164739;57;27433;-59
2021/09/01 13:47:17;;;;;;;4.68;3.17;;;20.60;99.90;;;20.99;100.00;95825.00;2402690;55;33906;-59
2021/09/01 13:50:05;;;;;;;4.55;3.40;;;20.50;99.90;;;21.00;98.39;95821.00;2161503;56;26959;-60
2021/09/01 13:55:49;;;;;;;3.97;3.58;;;20.80;99.90;;;21.40;100.00;95820.00;2399834;55;34708;-59